EKSN/CNL METAR and TAF weather

Enter ICAO airport designator
Station Type Date Time Source
EKSN METAR 2021/05/10 11:50 UTC NOAA

EKSN 101150Z 17013KT 9999 FEW026 BKN150 20/14 Q1001


Station Type Date Time Source
EKSN Decoded METAR 2021/05/10 11:50 UTC NOAA

Sindal Flyveplads, Denmark (EKSN) 57-30N 010-13E 28M
May 10, 2021 - 07:50 AM EDT / 2021.05.10 1150 UTC
Wind: from the S (170 degrees) at 15 MPH (13 KT):0
Visibility: greater than 7 mile(s):0
Sky conditions: mostly cloudy
Temperature: 68 F (20 C)
Dew Point: 57 F (14 C)
Relative Humidity: 68%
Pressure (altimeter): 29.56 in. Hg (1001 hPa)
ob: EKSN 101150Z 17013KT 9999 FEW026 BKN150 20/14 Q1001
cycle: 12

Station Type Date Time Source
EKSN TAF UTC NOAA

Error!

Example: see airport list